Time;durP1;ratioP1;P1;durP2;ratioP2;P2;SDS_P1;SDS_P2;PMS_P1;PMS_P2;Temp;Humidity;BMP_temperature;BMP_pressure;BME280_temperature;BME280_humidity;BME280_pressure;Samples;Min_cycle;Max_cycle;Signal;HPM_P1;HPM_P2
2023/01/22 05:03:43;;;;;;;12.73;5.65;;;0.70;99.90;;;;;;6144033;22;20206;-64
2023/01/22 05:06:08;;;;;;;8.40;6.03;;;0.70;99.90;;;;;;5033468;28;20225;-63
2023/01/22 05:08:34;;;;;;;13.10;6.70;;;0.70;99.90;;;;;;5034506;28;20178;-63
2023/01/22 05:11:01;;;;;;;8.70;7.37;;;0.70;99.90;;;;;;5034908;28;20171;-64
2023/01/22 05:13:26;;;;;;;6.97;5.78;;;0.80;99.90;;;;;;5034377;28;20300;-63
2023/01/22 05:15:52;;;;;;;6.90;4.77;;;0.70;99.90;;;;;;5034406;28;20241;-63
2023/01/22 05:18:17;;;;;;;6.50;5.70;;;0.80;99.90;;;;;;5034371;28;20249;-64
2023/01/22 05:20:43;;;;;;;6.07;5.10;;;0.70;99.90;;;;;;5016482;28;20575;-63
2023/01/22 05:23:08;;;;;;;7.13;5.27;;;0.70;99.90;;;;;;5034213;28;20184;-63
2023/01/22 05:25:34;;;;;;;7.00;5.67;;;0.70;99.90;;;;;;5034510;28;20197;-63
2023/01/22 05:28:00;;;;;;;9.03;5.67;;;0.70;99.90;;;;;;5034300;28;20205;-63
2023/01/22 05:30:25;;;;;;;13.97;6.00;;;0.70;99.90;;;;;;5034639;28;20182;-64
2023/01/22 05:32:56;;;;;;;9.73;7.20;;;0.70;99.90;;;;;;5034268;28;20601;-64
2023/01/22 05:35:22;;;;;;;10.25;7.05;;;0.70;99.90;;;;;;5032999;28;20716;-64
2023/01/22 05:37:47;;;;;;;6.25;5.65;;;0.70;99.90;;;;;;5033730;28;20220;-63
2023/01/22 05:40:13;;;;;;;10.20;5.67;;;0.70;99.90;;;;;;5033983;28;20847;-63
2023/01/22 05:42:39;;;;;;;9.47;5.57;;;0.80;99.90;;;;;;5034036;28;20536;-65
2023/01/22 05:45:05;;;;;;;6.27;5.67;;;0.80;99.90;;;;;;5034202;28;20425;-63
2023/01/22 05:47:31;;;;;;;6.45;5.78;;;0.80;99.90;;;;;;5033893;28;20197;-63
2023/01/22 05:49:56;;;;;;;8.07;6.63;;;0.80;99.90;;;;;;5015975;28;20184;-64
2023/01/22 05:52:22;;;;;;;9.77;5.93;;;0.80;99.90;;;;;;5034321;28;20216;-63
2023/01/22 05:54:47;;;;;;;9.70;5.40;;;0.80;99.90;;;;;;5033469;28;20555;-63
2023/01/22 05:57:13;;;;;;;8.00;7.20;;;0.80;99.90;;;;;;5033684;28;20210;-63
2023/01/22 05:59:39;;;;;;;10.80;7.37;;;0.80;99.90;;;;;;5033614;28;20623;-63
2023/01/22 06:02:04;;;;;;;6.93;5.43;;;0.80;99.90;;;;;;5033788;28;20177;-63
2023/01/22 06:04:30;;;;;;;7.27;4.40;;;0.80;99.90;;;;;;5033421;28;20236;-63
2023/01/22 06:06:55;;;;;;;8.43;7.50;;;0.80;99.90;;;;;;5033498;28;20576;-63
2023/01/22 06:09:21;;;;;;;9.13;7.13;;;0.80;99.90;;;;;;5033450;28;20236;-63
2023/01/22 06:11:47;;;;;;;10.20;6.87;;;0.80;99.90;;;;;;5033860;28;20207;-63
2023/01/22 06:14:12;;;;;;;9.03;6.70;;;0.80;99.90;;;;;;5033039;28;20475;-64
2023/01/22 06:16:38;;;;;;;10.07;7.27;;;0.80;99.90;;;;;;5033148;28;20179;-63
2023/01/22 06:19:04;;;;;;;11.10;7.60;;;0.70;99.90;;;;;;5033750;28;20170;-63
2023/01/22 06:21:29;;;;;;;9.43;7.90;;;0.70;99.90;;;;;;5033247;28;20178;-63
2023/01/22 06:23:55;;;;;;;10.47;5.60;;;0.70;99.90;;;;;;5032883;28;20452;-63
2023/01/22 06:26:21;;;;;;;8.00;6.00;;;0.70;99.90;;;;;;5033379;28;20174;-63
2023/01/22 06:28:46;;;;;;;8.60;7.33;;;0.70;99.90;;;;;;5032972;28;20181;-63
2023/01/22 06:31:12;;;;;;;11.77;6.43;;;0.70;99.90;;;;;;5033681;28;20508;-63
2023/01/22 06:33:38;;;;;;;9.47;6.90;;;0.70;99.90;;;;;;5015321;28;20560;-62
2023/01/22 06:36:04;;;;;;;10.38;6.00;;;0.70;99.90;;;;;;5033573;28;20248;-63
2023/01/22 06:38:31;;;;;;;16.30;7.63;;;0.70;99.90;;;;;;5032984;28;20604;-62
2023/01/22 06:40:58;;;;;;;13.43;6.60;;;0.70;99.90;;;;;;5033367;28;20596;-63
2023/01/22 06:43:25;;;;;;;8.35;7.10;;;0.70;99.90;;;;;;5030771;28;20190;-62
2023/01/22 06:45:51;;;;;;;6.68;5.97;;;0.70;99.90;;;;;;5032331;28;20182;-62
2023/01/22 06:48:16;;;;;;;10.80;7.27;;;0.70;99.90;;;;;;5033523;28;20174;-62
2023/01/22 06:50:42;;;;;;;11.83;7.63;;;0.70;99.90;;;;;;5033325;28;20180;-62
2023/01/22 06:53:08;;;;;;;14.75;6.43;;;0.70;99.90;;;;;;5015364;28;20626;-62
2023/01/22 06:55:34;;;;;;;10.90;8.00;;;0.70;99.90;;;;;;5033002;28;20206;-62
2023/01/22 06:58:00;;;;;;;10.88;7.50;;;0.70;99.90;;;;;;5033082;28;20209;-63
2023/01/22 07:00:26;;;;;;;9.43;6.43;;;0.70;99.90;;;;;;5033403;28;20197;-63
2023/01/22 07:02:53;;;;;;;8.53;6.43;;;0.80;99.90;;;;;;5033363;28;20182;-62
2023/01/22 07:05:18;;;;;;;10.23;7.22;;;0.80;99.90;;;;;;5033885;28;20209;-63
2023/01/22 07:07:45;;;;;;;8.60;7.20;;;0.80;99.90;;;;;;5034324;28;20162;-63
2023/01/22 07:10:11;;;;;;;9.73;6.20;;;0.80;99.90;;;;;;5033149;28;20458;-63
2023/01/22 07:12:37;;;;;;;11.07;7.17;;;0.80;99.90;;;;;;5034962;28;20193;-63
2023/01/22 07:15:05;;;;;;;11.07;7.90;;;0.80;99.90;;;;;;5036573;28;20231;-62
2023/01/22 07:17:31;;;;;;;14.68;8.23;;;0.90;99.90;;;;;;5038105;28;20432;-63
2023/01/22 07:19:57;;;;;;;10.27;7.93;;;0.90;99.90;;;;;;5037723;28;20170;-63
2023/01/22 07:22:22;;;;;;;10.77;6.97;;;0.90;99.90;;;;;;5036861;28;20393;-62
2023/01/22 07:24:48;;;;;;;13.37;8.77;;;0.90;99.90;;;;;;5036078;28;20198;-63
2023/01/22 07:27:13;;;;;;;11.07;7.17;;;0.90;99.90;;;;;;5036490;28;20173;-63
2023/01/22 07:29:39;;;;;;;11.60;7.83;;;0.90;99.90;;;;;;5036184;28;20182;-63
2023/01/22 07:32:05;;;;;;;9.00;6.13;;;1.00;99.90;;;;;;5036417;28;20184;-64
2023/01/22 07:34:30;;;;;;;9.77;7.67;;;1.00;99.90;;;;;;5036202;28;20212;-62
2023/01/22 07:36:56;;;;;;;10.90;7.70;;;0.90;99.90;;;;;;5035388;28;20177;-65
2023/01/22 07:39:23;;;;;;;12.97;8.30;;;0.90;99.90;;;;;;5035958;28;20689;-62
2023/01/22 07:41:49;;;;;;;13.05;8.05;;;1.00;99.90;;;;;;5016778;28;20537;-62
2023/01/22 07:44:15;;;;;;;10.33;6.80;;;1.00;99.90;;;;;;5035585;28;20202;-65
2023/01/22 07:46:41;;;;;;;11.23;7.73;;;1.00;99.90;;;;;;5036072;28;20597;-64
2023/01/22 07:49:06;;;;;;;9.53;5.60;;;1.00;99.90;;;;;;5036081;28;20424;-64
2023/01/22 07:51:32;;;;;;;12.73;8.13;;;1.00;99.90;;;;;;5036356;28;20201;-63
2023/01/22 07:53:57;;;;;;;9.40;7.30;;;1.00;99.90;;;;;;5035490;28;20202;-64
2023/01/22 07:56:23;;;;;;;9.20;6.40;;;1.00;99.90;;;;;;5035583;28;20186;-65
2023/01/22 07:58:49;;;;;;;11.40;7.83;;;1.10;99.90;;;;;;5035596;28;20651;-62
2023/01/22 08:01:14;;;;;;;15.60;7.63;;;1.10;99.90;;;;;;5035580;28;20188;-64
2023/01/22 08:03:40;;;;;;;10.20;6.63;;;1.10;99.90;;;;;;5034889;28;20236;-65
2023/01/22 08:06:10;;;;;;;11.43;7.23;;;1.10;99.90;;;;;;5017356;28;20189;-66
2023/01/22 08:08:37;;;;;;;13.80;6.80;;;1.10;99.90;;;;;;5035490;28;20214;-62
2023/01/22 08:11:03;;;;;;;8.88;6.70;;;1.10;99.90;;;;;;5017832;28;20174;-64
2023/01/22 08:13:29;;;;;;;10.77;6.68;;;1.10;99.90;;;;;;5035206;28;20190;-63
2023/01/22 08:15:54;;;;;;;8.80;7.20;;;1.10;99.90;;;;;;5034942;28;20243;-64
2023/01/22 08:18:20;;;;;;;11.57;8.77;;;1.10;99.90;;;;;;5035192;28;20178;-64
2023/01/22 08:20:46;;;;;;;13.67;7.70;;;1.00;99.90;;;;;;5036143;28;20181;-63
2023/01/22 08:23:12;;;;;;;14.23;7.03;;;1.00;99.90;;;;;;5034491;28;20420;-63
2023/01/22 08:25:37;;;;;;;11.20;7.10;;;1.00;99.90;;;;;;5034617;28;20218;-64
2023/01/22 08:28:04;;;;;;;9.83;6.83;;;1.00;99.90;;;;;;5035034;28;20301;-62
2023/01/22 08:30:31;;;;;;;14.30;8.52;;;1.00;99.90;;;;;;5035490;28;20185;-63
2023/01/22 08:32:57;;;;;;;13.73;9.50;;;1.10;99.90;;;;;;5034653;28;20202;-63
2023/01/22 08:35:22;;;;;;;11.73;8.43;;;1.10;99.90;;;;;;5035458;28;20682;-62
2023/01/22 08:37:48;;;;;;;11.43;7.43;;;1.10;99.90;;;;;;5034681;28;20241;-62
2023/01/22 08:40:14;;;;;;;14.77;8.13;;;1.10;99.90;;;;;;5034663;28;20273;-63
2023/01/22 08:42:40;;;;;;;9.85;5.80;;;1.10;99.90;;;;;;5035148;28;20265;-64
2023/01/22 08:45:06;;;;;;;13.77;8.13;;;1.10;99.90;;;;;;5034781;28;20651;-68
2023/01/22 08:47:32;;;;;;;15.32;10.38;;;1.10;99.90;;;;;;5034924;28;20190;-64
2023/01/22 08:49:58;;;;;;;9.63;6.03;;;1.20;99.90;;;;;;5034487;28;20174;-64
2023/01/22 08:52:23;;;;;;;14.90;8.00;;;1.20;99.90;;;;;;5034880;28;20552;-61
2023/01/22 08:54:49;;;;;;;11.37;8.10;;;1.20;99.90;;;;;;5034515;28;20643;-63
2023/01/22 08:57:14;;;;;;;10.60;7.10;;;1.20;99.90;;;;;;5034885;28;20269;-64
2023/01/22 08:59:40;;;;;;;12.47;7.17;;;1.20;99.90;;;;;;5017413;28;20205;-63
2023/01/22 09:02:12;;;;;;;10.53;6.43;;;1.20;99.90;;;;;;5033978;28;20539;-63
2023/01/22 09:04:38;;;;;;;10.60;8.15;;;1.30;99.90;;;;;;5034280;28;20587;-65
2023/01/22 09:07:03;;;;;;;11.83;8.00;;;1.30;99.90;;;;;;5017199;28;20216;-63
2023/01/22 09:09:29;;;;;;;9.00;6.47;;;1.40;99.90;;;;;;5034402;28;20436;-63
2023/01/22 09:11:54;;;;;;;13.67;9.10;;;1.40;99.90;;;;;;5034692;28;20662;-63
2023/01/22 09:14:20;;;;;;;10.07;7.37;;;1.50;99.90;;;;;;5033613;28;20194;-64
2023/01/22 09:16:46;;;;;;;11.10;8.93;;;1.60;99.90;;;;;;5031391;28;20166;-62
2023/01/22 09:19:11;;;;;;;9.17;6.47;;;1.60;99.90;;;;;;5034563;28;20166;-64
2023/01/22 09:21:38;;;;;;;10.73;6.80;;;1.70;99.90;;;;;;5034475;28;20163;-62
2023/01/22 09:24:05;;;;;;;13.40;6.95;;;1.80;99.90;;;;;;5034058;28;20218;-62
2023/01/22 09:26:31;;;;;;;9.48;7.75;;;1.80;99.90;;;;;;5034060;28;20186;-62
2023/01/22 09:28:59;;;;;;;11.47;7.33;;;1.90;99.90;;;;;;5031520;28;20183;-64
2023/01/22 09:31:25;;;;;;;15.05;7.45;;;1.90;99.90;;;;;;5014582;28;20435;-65
2023/01/22 09:33:51;;;;;;;8.75;7.38;;;2.00;99.90;;;;;;5013911;28;20213;-62
2023/01/22 09:36:17;;;;;;;9.80;5.80;;;2.00;99.90;;;;;;5023085;28;20182;-62
2023/01/22 09:38:43;;;;;;;9.20;6.67;;;1.90;99.90;;;;;;5015802;28;20205;-62
2023/01/22 09:41:32;;;;;;;8.13;6.15;;;2.00;99.90;;;;;;5033224;28;20216;-63
2023/01/22 09:44:16;;;;;;;13.05;7.85;;;2.00;99.90;;;;;;5030468;28;20194;-63
2023/01/22 09:46:52;;;;;;;10.88;7.35;;;2.10;99.90;;;;;;5031541;28;20212;-62
2023/01/22 09:49:24;;;;;;;9.60;6.72;;;2.10;99.90;;;;;;5031213;28;20212;-63
2023/01/22 09:51:55;;;;;;;12.13;8.95;;;2.10;99.90;;;;;;5033888;28;20166;-61
2023/01/22 09:54:21;;;;;;;11.45;6.70;;;2.10;99.90;;;;;;5033376;28;20204;-64
2023/01/22 09:56:50;;;;;;;10.32;7.43;;;2.10;99.90;;;;;;5031975;28;20660;-67
2023/01/22 09:59:40;;;;;;;12.93;6.88;;;2.20;99.90;;;;;;5032853;28;20224;-63
2023/01/22 10:02:35;;;;;;;10.10;7.40;;;2.20;99.90;;;;;;5019790;28;20202;-62
2023/01/22 10:05:26;;;;;;;9.77;7.30;;;2.10;99.90;;;;;;5020973;28;20722;-61
2023/01/22 10:07:59;;;;;;;15.13;8.55;;;2.10;99.90;;;;;;5015457;28;20587;-65
2023/01/22 10:10:27;;;;;;;10.52;7.00;;;2.10;99.90;;;;;;5023933;28;20202;-63
2023/01/22 10:13:01;;;;;;;10.30;7.28;;;2.10;99.90;;;;;;5023245;28;20202;-65
2023/01/22 10:15:27;;;;;;;11.68;6.95;;;2.20;99.90;;;;;;5022485;28;20256;-63
2023/01/22 10:17:55;;;;;;;10.17;6.67;;;2.30;99.90;;;;;;5022760;28;20636;-65
2023/01/22 10:20:23;;;;;;;13.07;8.13;;;2.30;99.90;;;;;;5029392;28;20252;-63
2023/01/22 10:22:50;;;;;;;10.98;6.85;;;2.30;99.90;;;;;;5032518;28;20174;-62
2023/01/22 10:25:15;;;;;;;9.25;7.38;;;2.30;99.90;;;;;;5032938;28;20198;-63
2023/01/22 10:27:44;;;;;;;12.93;8.10;;;2.30;99.90;;;;;;5025474;28;20185;-65
2023/01/22 10:30:24;;;;;;;10.70;7.53;;;2.50;99.90;;;;;;5019042;28;20421;-62
2023/01/22 10:33:04;;;;;;;10.00;7.13;;;2.50;99.90;;;;;;4999104;28;20225;-61
2023/01/22 10:35:31;;;;;;;8.68;6.70;;;2.40;99.90;;;;;;5032692;28;20648;-61
2023/01/22 10:37:58;;;;;;;14.70;8.27;;;2.40;99.90;;;;;;5031186;28;20178;-70
2023/01/22 10:40:34;;;;;;;10.07;6.65;;;2.40;99.90;;;;;;5022529;28;20174;-64
2023/01/22 10:43:11;;;;;;;12.77;7.40;;;2.50;99.90;;;;;;5013564;28;20655;-66
2023/01/22 10:45:38;;;;;;;13.55;7.35;;;2.60;99.90;;;;;;5013127;28;20606;-63
2023/01/22 10:48:22;;;;;;;11.18;6.03;;;2.60;99.90;;;;;;5033046;28;20178;-66
2023/01/22 10:51:26;;;;;;;10.15;6.47;;;2.70;99.90;;;;;;5033620;28;20213;-64
2023/01/22 10:53:56;;;;;;;11.27;7.40;;;2.70;99.90;;;;;;5009156;28;20206;-66
2023/01/22 10:56:37;;;;;;;11.38;7.05;;;2.70;99.90;;;;;;5034534;28;20220;-64
2023/01/22 10:59:25;;;;;;;8.10;5.95;;;2.60;99.90;;;;;;5017137;28;20232;-66
2023/01/22 11:01:57;;;;;;;11.70;6.88;;;2.60;99.90;;;;;;5033343;28;20513;-64
2023/01/22 11:04:27;;;;;;;10.40;6.00;;;2.60;99.90;;;;;;5030718;28;20194;-64
2023/01/22 11:07:03;;;;;;;9.82;6.43;;;2.70;99.90;;;;;;5032937;28;20206;-63
2023/01/22 11:09:40;;;;;;;10.15;6.00;;;2.60;99.90;;;;;;5015210;28;20272;-63
2023/01/22 11:12:21;;;;;;;6.43;5.80;;;2.70;99.90;;;;;;5033127;28;20584;-65
2023/01/22 11:14:57;;;;;;;10.38;6.45;;;2.70;99.90;;;;;;5032789;28;20194;-64
2023/01/22 11:17:39;;;;;;;7.28;5.32;;;2.80;99.90;;;;;;5033637;28;20195;-63
2023/01/22 11:20:20;;;;;;;11.68;6.75;;;2.90;99.90;;;;;;5033276;28;20178;-62
2023/01/22 11:23:12;;;;;;;10.40;7.18;;;2.90;99.90;;;;;;5030749;28;20189;-64
2023/01/22 11:25:56;;;;;;;11.82;7.47;;;3.00;99.90;;;;;;5002971;28;20278;-65
2023/01/22 11:28:30;;;;;;;7.82;5.75;;;3.00;99.90;;;;;;5013386;28;20179;-62
2023/01/22 11:31:22;;;;;;;6.18;4.97;;;3.00;99.90;;;;;;5013111;28;20250;-65
2023/01/22 11:33:59;;;;;;;10.48;7.20;;;3.00;99.90;;;;;;5031898;28;20235;-63
2023/01/22 11:36:34;;;;;;;11.15;6.78;;;3.10;99.90;;;;;;5032200;28;20188;-62
2023/01/22 11:39:24;;;;;;;9.93;6.32;;;3.00;99.90;;;;;;5032955;28;20173;-64
2023/01/22 11:42:11;;;;;;;13.32;6.57;;;3.00;99.90;;;;;;5032378;28;20243;-62
2023/01/22 11:45:06;;;;;;;6.95;5.63;;;3.00;99.90;;;;;;5031970;28;20194;-61
2023/01/22 11:48:25;;;;;;;10.05;6.22;;;3.00;99.90;;;;;;5031595;28;20206;-63
2023/01/22 11:51:10;;;;;;;10.05;4.85;;;2.90;99.90;;;;;;4952871;29;20228;-63
2023/01/22 11:54:09;;;;;;;8.75;6.07;;;2.90;99.90;;;;;;5017022;28;20209;-63
2023/01/22 11:56:53;;;;;;;8.60;5.78;;;3.00;99.90;;;;;;5032963;28;20250;-60
2023/01/22 11:59:25;;;;;;;9.85;5.75;;;3.00;99.90;;;;;;5035041;28;20213;-63
2023/01/22 12:02:05;;;;;;;8.20;5.88;;;3.00;99.90;;;;;;5035900;28;20169;-60
2023/01/22 12:04:42;;;;;;;8.10;5.50;;;3.00;99.90;;;;;;5035291;28;20598;-62
2023/01/22 12:07:16;;;;;;;9.07;5.68;;;3.10;99.90;;;;;;5035936;28;20188;-62
2023/01/22 12:10:17;;;;;;;11.60;7.45;;;3.10;99.90;;;;;;5036420;28;20171;-63
2023/01/22 12:12:52;;;;;;;10.23;6.55;;;3.10;99.90;;;;;;5025487;28;20343;-64
2023/01/22 12:15:30;;;;;;;9.00;6.70;;;3.10;99.90;;;;;;5017736;28;20669;-62
2023/01/22 12:18:04;;;;;;;9.98;6.30;;;3.00;99.90;;;;;;5036232;28;20162;-66
2023/01/22 12:20:41;;;;;;;10.75;7.20;;;3.00;99.90;;;;;;5035717;28;20208;-66
2023/01/22 12:23:15;;;;;;;10.10;4.97;;;3.00;99.90;;;;;;5035555;28;20174;-67
2023/01/22 12:25:46;;;;;;;11.77;6.55;;;3.00;99.90;;;;;;5035658;28;20195;-70
2023/01/22 12:28:41;;;;;;;9.35;7.90;;;3.10;99.90;;;;;;5035661;28;20257;-64
2023/01/22 12:31:14;;;;;;;10.75;7.70;;;3.10;99.90;;;;;;5035413;28;20640;-65
2023/01/22 12:33:41;;;;;;;10.45;5.80;;;3.20;99.90;;;;;;5035103;28;20198;-63
2023/01/22 12:36:11;;;;;;;11.60;7.65;;;3.20;99.90;;;;;;5035377;28;20201;-64
2023/01/22 12:38:42;;;;;;;10.57;6.45;;;3.20;99.90;;;;;;5035571;28;20308;-64
2023/01/22 12:41:26;;;;;;;7.63;6.00;;;3.20;99.90;;;;;;5035447;28;20166;-63
2023/01/22 12:43:54;;;;;;;10.00;7.65;;;3.30;99.90;;;;;;5035015;28;20272;-65
2023/01/22 12:46:31;;;;;;;7.68;6.30;;;3.20;99.90;;;;;;5035061;28;20629;-63
2023/01/22 12:49:07;;;;;;;10.85;6.13;;;3.20;99.90;;;;;;5035599;28;20174;-65
2023/01/22 12:51:42;;;;;;;9.15;5.80;;;3.10;99.90;;;;;;5035024;28;20204;-66
2023/01/22 12:54:29;;;;;;;8.55;5.78;;;3.10;99.90;;;;;;5034270;28;20229;-67
2023/01/22 12:57:15;;;;;;;7.60;5.85;;;3.10;99.90;;;;;;5017275;28;20678;-65
2023/01/22 12:59:46;;;;;;;7.05;5.22;;;3.00;99.90;;;;;;5007095;28;20502;-61
2023/01/22 13:02:20;;;;;;;7.30;5.25;;;3.00;99.90;;;;;;5015213;28;20167;-63
2023/01/22 13:04:45;;;;;;;8.10;7.28;;;3.10;99.90;;;;;;5014495;28;20182;-63
2023/01/22 13:07:32;;;;;;;9.20;5.70;;;3.10;99.90;;;;;;5014924;28;20229;-64
2023/01/22 13:10:28;;;;;;;11.30;7.15;;;3.20;99.90;;;;;;5032538;28;20178;-61
2023/01/22 13:12:56;;;;;;;12.55;6.75;;;3.20;99.90;;;;;;5016690;28;20201;-65
2023/01/22 13:15:25;;;;;;;7.55;5.95;;;3.20;99.90;;;;;;5034641;28;20240;-68
2023/01/22 13:18:20;;;;;;;7.43;5.78;;;3.30;99.90;;;;;;5034574;28;20177;-65
2023/01/22 13:21:16;;;;;;;9.10;6.85;;;3.30;99.90;;;;;;5034728;28;20159;-64
2023/01/22 13:23:45;;;;;;;6.97;4.47;;;3.20;99.90;;;;;;5021414;28;20615;-65
2023/01/22 13:26:32;;;;;;;7.18;6.38;;;3.20;99.90;;;;;;5035465;28;20185;-64
2023/01/22 13:29:05;;;;;;;10.82;7.45;;;3.10;99.90;;;;;;5034602;28;20212;-65
2023/01/22 13:31:33;;;;;;;10.32;6.45;;;3.00;99.90;;;;;;5034650;28;20170;-64
2023/01/22 13:34:07;;;;;;;8.82;6.15;;;3.00;99.90;;;;;;5033582;28;20198;-66
2023/01/22 13:36:37;;;;;;;6.93;4.63;;;3.00;99.90;;;;;;5034081;28;20195;-62
2023/01/22 13:39:03;;;;;;;8.88;7.15;;;3.10;99.90;;;;;;5027943;28;20558;-65
2023/01/22 13:41:36;;;;;;;7.80;6.57;;;3.10;99.90;;;;;;5023629;28;20266;-62
2023/01/22 13:44:04;;;;;;;7.20;5.70;;;3.00;99.90;;;;;;5022651;28;20186;-63
2023/01/22 13:46:30;;;;;;;8.40;5.85;;;2.90;99.90;;;;;;5023257;28;20232;-61
2023/01/22 13:49:06;;;;;;;6.70;5.90;;;2.90;99.90;;;;;;5027000;28;20177;-63
2023/01/22 13:51:33;;;;;;;7.85;6.32;;;3.00;99.90;;;;;;5033647;28;20415;-61
2023/01/22 13:54:00;;;;;;;6.30;4.05;;;3.00;99.90;;;;;;5033203;28;20209;-65
2023/01/22 13:56:27;;;;;;;6.38;5.75;;;3.00;99.90;;;;;;5033148;28;20181;-63
2023/01/22 13:59:16;;;;;;;8.75;5.97;;;3.10;99.90;;;;;;5033936;28;20174;-64
2023/01/22 14:01:42;;;;;;;5.80;5.22;;;3.10;99.90;;;;;;5033791;28;20177;-59
2023/01/22 14:04:35;;;;;;;7.87;6.17;;;3.10;99.90;;;;;;5033119;28;20766;-63
2023/01/22 14:07:02;;;;;;;7.43;6.32;;;3.10;99.90;;;;;;5033644;28;20828;-63
2023/01/22 14:09:36;;;;;;;8.23;4.63;;;3.10;99.90;;;;;;5033882;28;20234;-62
2023/01/22 14:12:24;;;;;;;9.55;4.95;;;3.10;99.90;;;;;;5033881;28;20166;-63
2023/01/22 14:14:51;;;;;;;6.45;3.88;;;3.10;99.90;;;;;;5033251;28;20212;-61
2023/01/22 14:17:22;;;;;;;6.63;4.35;;;3.00;99.90;;;;;;5015561;28;20269;-64
2023/01/22 14:19:48;;;;;;;7.93;5.65;;;3.00;99.90;;;;;;5031696;28;20260;-62
2023/01/22 14:22:14;;;;;;;7.40;5.37;;;2.90;99.90;;;;;;5030955;28;20209;-64
2023/01/22 14:24:39;;;;;;;7.37;4.93;;;2.90;99.90;;;;;;5031293;28;20542;-62
2023/01/22 14:27:05;;;;;;;6.53;4.93;;;2.90;99.90;;;;;;5031544;28;20170;-63
2023/01/22 14:29:31;;;;;;;7.57;4.57;;;2.90;99.90;;;;;;5031599;28;20182;-63
2023/01/22 14:31:57;;;;;;;6.67;4.50;;;2.80;99.90;;;;;;5031344;28;20188;-60
2023/01/22 14:34:23;;;;;;;8.60;5.60;;;2.80;99.90;;;;;;5014328;28;20460;-62
2023/01/22 14:36:48;;;;;;;6.87;4.80;;;2.80;99.90;;;;;;5033336;28;20261;-61
2023/01/22 14:39:14;;;;;;;9.47;5.90;;;2.80;99.90;;;;;;5033524;28;20171;-63
2023/01/22 14:41:40;;;;;;;6.75;5.05;;;2.80;99.90;;;;;;5015573;28;20181;-60
2023/01/22 14:44:06;;;;;;;6.55;4.68;;;2.80;99.90;;;;;;5015328;28;20193;-63
2023/01/22 14:46:32;;;;;;;6.80;5.13;;;2.90;99.90;;;;;;5033218;28;20182;-61
2023/01/22 14:49:00;;;;;;;8.50;5.47;;;2.90;99.90;;;;;;5033507;28;20173;-65
2023/01/22 14:51:26;;;;;;;7.10;4.38;;;2.90;99.90;;;;;;5033413;28;20528;-62
2023/01/22 14:53:52;;;;;;;5.57;4.65;;;2.90;99.90;;;;;;5015069;28;20616;-63
2023/01/22 14:56:18;;;;;;;5.40;3.53;;;2.80;99.90;;;;;;5033362;28;20190;-62
2023/01/22 14:58:43;;;;;;;6.35;5.75;;;2.80;99.90;;;;;;5033150;28;20232;-62
2023/01/22 15:01:21;;;;;;;6.77;5.00;;;2.80;99.90;;;;;;5033358;28;20177;-61
2023/01/22 15:03:47;;;;;;;5.80;5.25;;;2.80;99.90;;;;;;5032767;28;20198;-63
2023/01/22 15:06:13;;;;;;;6.90;4.05;;;2.80;99.90;;;;;;5015233;28;20190;-61
2023/01/22 15:08:38;;;;;;;5.43;4.90;;;2.80;99.90;;;;;;5033273;28;20239;-61
2023/01/22 15:11:04;;;;;;;5.87;5.30;;;2.80;99.90;;;;;;5033036;28;20178;-64
2023/01/22 15:13:31;;;;;;;6.00;5.50;;;2.80;99.90;;;;;;5032431;28;20445;-59
2023/01/22 15:16:05;;;;;;;6.05;4.72;;;2.80;99.90;;;;;;5033168;28;20504;-62
2023/01/22 15:18:31;;;;;;;4.85;3.63;;;2.80;99.90;;;;;;5033146;28;20174;-61
2023/01/22 15:20:56;;;;;;;5.83;4.80;;;2.80;99.90;;;;;;5033139;28;20166;-61
2023/01/22 15:23:22;;;;;;;5.17;3.50;;;2.80;99.90;;;;;;5032574;28;20412;-61
2023/01/22 15:26:04;;;;;;;5.27;4.77;;;2.70;99.90;;;;;;5032884;28;20198;-64
2023/01/22 15:28:30;;;;;;;6.40;4.90;;;2.70;99.90;;;;;;5032644;28;20213;-63
2023/01/22 15:30:58;;;;;;;3.85;3.50;;;2.70;99.90;;;;;;5015218;28;20174;-63
2023/01/22 15:33:24;;;;;;;8.25;4.65;;;2.70;99.90;;;;;;5034778;28;20202;-61
2023/01/22 15:35:51;;;;;;;7.33;5.03;;;2.70;99.90;;;;;;5018803;28;20193;-61
2023/01/22 15:38:16;;;;;;;4.70;4.10;;;2.70;99.90;;;;;;5036728;28;20162;-61
2023/01/22 15:40:42;;;;;;;5.30;4.80;;;2.70;99.90;;;;;;5036645;28;20243;-63
2023/01/22 15:43:08;;;;;;;7.90;4.90;;;2.70;99.90;;;;;;5018385;28;20174;-61
2023/01/22 15:45:34;;;;;;;5.43;4.87;;;2.70;99.90;;;;;;5036197;28;20198;-64
2023/01/22 15:48:00;;;;;;;4.93;4.43;;;2.70;99.90;;;;;;5036339;28;20400;-63
2023/01/22 15:50:26;;;;;;;4.05;3.65;;;2.70;99.90;;;;;;5036497;28;20197;-62
2023/01/22 15:52:53;;;;;;;6.82;5.35;;;2.70;99.90;;;;;;5001944;28;20198;-62
2023/01/22 15:55:20;;;;;;;6.88;5.03;;;2.70;99.90;;;;;;5036287;28;20192;-62
2023/01/22 15:57:45;;;;;;;6.05;5.45;;;2.70;99.90;;;;;;5036256;28;20189;-62
2023/01/22 16:00:12;;;;;;;6.70;3.83;;;2.70;99.90;;;;;;5036342;28;20170;-60
2023/01/22 16:02:38;;;;;;;5.65;4.32;;;2.70;99.90;;;;;;5018250;28;20169;-62
2023/01/22 16:05:04;;;;;;;6.90;4.87;;;2.70;99.90;;;;;;5035789;28;20212;-61
2023/01/22 16:07:30;;;;;;;5.15;3.92;;;2.70;99.90;;;;;;5036202;28;20428;-63
2023/01/22 16:09:55;;;;;;;6.87;4.00;;;2.60;99.90;;;;;;5036344;28;20261;-62
2023/01/22 16:12:21;;;;;;;7.20;5.27;;;2.60;99.90;;;;;;5035852;28;20257;-62
2023/01/22 16:14:47;;;;;;;5.53;4.80;;;2.60;99.90;;;;;;5035443;28;20205;-61
2023/01/22 16:17:13;;;;;;;5.13;4.63;;;2.60;99.90;;;;;;5036252;28;20178;-62
2023/01/22 16:19:39;;;;;;;5.53;4.70;;;2.50;99.90;;;;;;5035934;28;20170;-61
2023/01/22 16:22:04;;;;;;;3.17;2.87;;;2.50;99.90;;;;;;5035847;28;20185;-62
2023/01/22 16:24:30;;;;;;;5.03;4.63;;;2.50;99.90;;;;;;5035518;28;20194;-60
2023/01/22 16:26:56;;;;;;;6.03;4.50;;;2.50;99.90;;;;;;5035628;28;20221;-63
2023/01/22 16:29:21;;;;;;;6.70;4.70;;;2.50;99.90;;;;;;5035505;28;20177;-63
2023/01/22 16:31:47;;;;;;;4.57;3.97;;;2.50;99.90;;;;;;5035759;28;20179;-62
2023/01/22 16:34:15;;;;;;;5.87;4.73;;;2.40;99.90;;;;;;5035066;28;20544;-64
2023/01/22 16:36:41;;;;;;;4.95;4.22;;;2.40;99.90;;;;;;5035301;28;20667;-61
2023/01/22 16:39:14;;;;;;;6.03;4.65;;;2.40;99.90;;;;;;5035449;28;20169;-63
2023/01/22 16:41:40;;;;;;;8.18;5.28;;;2.40;99.90;;;;;;5035596;28;20185;-61
2023/01/22 16:44:10;;;;;;;5.27;4.87;;;2.40;99.90;;;;;;5015658;28;20205;-64
2023/01/22 16:46:38;;;;;;;8.57;5.35;;;2.40;99.90;;;;;;5035190;28;20417;-61
2023/01/22 16:49:09;;;;;;;5.43;3.88;;;2.40;99.90;;;;;;5035318;28;20174;-63
2023/01/22 16:51:40;;;;;;;4.97;4.47;;;2.30;99.90;;;;;;5029479;28;20179;-63
2023/01/22 16:54:07;;;;;;;6.18;4.20;;;2.30;99.90;;;;;;5022622;28;20198;-63
2023/01/22 16:56:33;;;;;;;6.43;5.25;;;2.30;99.90;;;;;;5027339;28;20243;-59
2023/01/22 16:58:59;;;;;;;6.30;3.78;;;2.30;99.90;;;;;;5035231;28;20560;-63
2023/01/22 17:01:27;;;;;;;9.10;5.07;;;2.30;99.90;;;;;;5033027;28;20170;-62
2023/01/22 17:03:53;;;;;;;8.27;6.78;;;2.30;99.90;;;;;;5033945;28;20186;-66
2023/01/22 17:06:29;;;;;;;4.97;4.50;;;2.20;99.90;;;;;;5034890;28;20182;-61
2023/01/22 17:08:54;;;;;;;9.18;5.32;;;2.20;99.90;;;;;;5034786;28;20729;-66
2023/01/22 17:11:20;;;;;;;7.77;5.10;;;2.20;99.90;;;;;;5034680;28;20181;-69
2023/01/22 17:13:46;;;;;;;5.68;3.63;;;2.20;99.90;;;;;;5033372;28;20267;-63
2023/01/22 17:16:13;;;;;;;8.63;4.47;;;2.20;99.90;;;;;;5032591;28;20543;-61
2023/01/22 17:18:38;;;;;;;6.63;3.90;;;2.20;99.90;;;;;;5033148;28;20427;-63
2023/01/22 17:21:06;;;;;;;5.30;4.80;;;2.20;99.90;;;;;;5034448;28;20247;-61
2023/01/22 17:23:32;;;;;;;22.55;5.03;;;2.20;99.90;;;;;;5033019;28;20178;-63
2023/01/22 17:25:57;;;;;;;5.30;4.90;;;2.20;99.90;;;;;;5033108;28;20261;-63
2023/01/22 17:28:23;;;;;;;7.77;4.40;;;2.20;99.90;;;;;;5032286;28;20174;-62
2023/01/22 17:30:49;;;;;;;7.40;5.57;;;2.20;99.90;;;;;;5033048;28;20664;-63
2023/01/22 17:33:15;;;;;;;3.87;3.53;;;2.20;99.90;;;;;;5033029;28;20241;-63
2023/01/22 17:35:41;;;;;;;6.65;4.85;;;2.20;99.90;;;;;;5032236;28;20433;-60
2023/01/22 17:38:07;;;;;;;5.30;4.80;;;2.20;99.90;;;;;;5024728;28;20193;-63
2023/01/22 17:40:35;;;;;;;7.68;6.03;;;2.20;99.90;;;;;;5030379;28;20201;-65
2023/01/22 17:43:01;;;;;;;7.82;5.50;;;2.20;99.90;;;;;;5022523;28;20184;-61
2023/01/22 17:45:27;;;;;;;5.73;4.93;;;2.20;99.90;;;;;;5013365;28;20198;-60
2023/01/22 17:47:53;;;;;;;5.90;4.97;;;2.20;99.90;;;;;;5024616;28;20429;-64
2023/01/22 17:50:18;;;;;;;6.10;5.10;;;2.20;99.90;;;;;;5028176;28;20456;-64
2023/01/22 17:52:44;;;;;;;6.93;4.27;;;2.20;99.90;;;;;;5022502;28;20212;-66
2023/01/22 17:55:10;;;;;;;7.43;5.40;;;2.10;99.90;;;;;;5027784;28;20284;-61
2023/01/22 17:57:35;;;;;;;5.90;5.40;;;2.10;99.90;;;;;;5032575;28;20170;-62
2023/01/22 18:00:01;;;;;;;7.73;4.97;;;2.10;99.90;;;;;;5033159;28;20179;-60
2023/01/22 18:02:27;;;;;;;6.20;4.87;;;2.10;99.90;;;;;;5032939;28;20671;-63
2023/01/22 18:04:54;;;;;;;8.50;6.40;;;2.10;99.90;;;;;;5032560;28;20433;-62
2023/01/22 18:07:20;;;;;;;9.60;4.82;;;2.10;99.90;;;;;;5033483;28;20178;-62
2023/01/22 18:09:45;;;;;;;6.73;5.07;;;2.10;99.90;;;;;;5033209;28;20196;-61